This is the latest recevied weather packets stored in our database for station/object N8BAP. If no packets are shown the sender has not sent any weather packets the latest 1 day(s).
| Time | Temp. | Humidity | Pressure | Rain* | Wind** | Luminosity | Snow |
|---|---|---|---|---|---|---|---|
| 1836274657 | 15° C | 84% | 1024 hPa | 0 mm | 0 m/s | 0 W/m² | - |
| 1836274510 | 15.56° C | 80% | 1024.1 hPa | 0 mm | 0 m/s | 0 W/m² | - |
| 1836274355 | 15° C | 85% | 1024.1 hPa | 0 mm | 0 m/s | 0 W/m² | - |
| 1836274208 | 15.56° C | 81% | 1024.1 hPa | 0 mm | 0 m/s | 0 W/m² | - |
| 1836274053 | 15° C | 85% | 1024.1 hPa | 0 mm | 0 m/s | 0 W/m² | - |
| 1778043145 | 13.89° C | 96% | 1012 hPa | 0 mm | 0.45 m/s, 224° | 0 W/m² | - |
| 1778042843 | 13.89° C | 96% | 1011.9 hPa | 0 mm | 0.45 m/s, 245° | 0 W/m² | - |
| 1778042541 | 13.89° C | 96% | 1011.7 hPa | 0 mm | 0 m/s | 0 W/m² | - |
| 1778042238 | 13.89° C | 96% | 1011.6 hPa | 0 mm | 0 m/s | 0 W/m² | - |
| 1778041935 | 13.89° C | 96% | 1011.9 hPa | 0 mm | 0 m/s | 0 W/m² | - |
| 1778041634 | 13.89° C | 96% | 1011.6 hPa | 0 mm | 0 m/s | 0 W/m² | - |
| 1778041332 | 13.89° C | 95% | 1011.9 hPa | 0 mm | 0 m/s | 0 W/m² | - |
| 1778041030 | 13.89° C | 95% | 1011.8 hPa | 0 mm | 0 m/s | 0 W/m² | - |
| 1778040727 | 13.89° C | 95% | 1011.7 hPa | 0 mm | 0 m/s | 0 W/m² | - |
| 1778040424 | 13.89° C | 95% | 1011.8 hPa | 0 mm | 0.89 m/s, 203° | 0 W/m² | - |
| 1778040121 | 14.44° C | 95% | 1011.9 hPa | 0 mm | 0.89 m/s, 228° | 0 W/m² | - |
| 1778039818 | 14.44° C | 95% | 1012.2 hPa | 0 mm | 0.45 m/s, 213° | 0 W/m² | - |
| 1778039515 | 14.44° C | 95% | 1012.2 hPa | 0 mm | 0.89 m/s, 218° | 0 W/m² | - |
| 1778039211 | 14.44° C | 95% | 1012 hPa | 0 mm | 0.45 m/s, 215° | 0 W/m² | - |
| 1778038909 | 14.44° C | 95% | 1012.2 hPa | 0 mm | 0.45 m/s, 215° | 0 W/m² | - |
| 1778038606 | 14.44° C | 95% | 1012 hPa | 0 mm | 0.89 m/s, 242° | 0 W/m² | - |
| 1778038303 | 14.44° C | 95% | 1012.4 hPa | 0 mm | 0.45 m/s, 218° | 0 W/m² | - |
| 1778038000 | 14.44° C | 95% | 1012.2 hPa | 0 mm | 0.45 m/s, 233° | 0 W/m² | - |
| 1778037697 | 14.44° C | 95% | 1012.3 hPa | 0 mm | 0.89 m/s, 221° | 0 W/m² | - |
| 1778037394 | 14.44° C | 94% | 1012.8 hPa | 0 mm | 1.34 m/s, 220° | 0 W/m² | - |
* Rain latest hour (hover to see other rain measurements)
** Current wind speed in m/s (hover to see current wind gust speed)